createdAt,value
2023-04-28T00:01:16.784Z,61.02
2023-04-28T00:03:43.632Z,60.59
2023-04-28T00:06:11.469Z,60.35
2023-04-28T00:08:38.096Z,60.25
2023-04-28T00:11:09.049Z,60.62
2023-04-28T00:13:35.836Z,61.72
2023-04-28T00:16:02.439Z,65.96
2023-04-28T00:18:29.240Z,62.36
2023-04-28T00:20:56.453Z,61.97
2023-04-28T00:23:23.089Z,62.59
2023-04-28T00:25:53.218Z,62.04
2023-04-28T00:28:32.918Z,62.88
2023-04-28T00:31:01.132Z,62.24
2023-04-28T00:33:27.743Z,62.58
2023-04-28T00:36:01.430Z,63.00
2023-04-28T00:38:28.382Z,64.28
2023-04-28T00:40:55.038Z,62.75
2023-04-28T00:43:21.787Z,63.48
2023-04-28T00:45:52.064Z,62.94
2023-04-28T00:48:19.553Z,63.03
2023-04-28T00:50:47.566Z,65.41
2023-04-28T00:53:14.308Z,63.64
2023-04-28T00:55:41.185Z,63.82
2023-04-28T00:58:08.319Z,64.88
2023-04-28T01:00:35.133Z,65.44
2023-04-28T01:03:01.846Z,66.32
2023-04-28T01:05:29.443Z,65.16
2023-04-28T01:07:56.227Z,64.71
2023-04-28T01:10:22.911Z,64.06
2023-04-28T01:12:49.504Z,64.90
2023-04-28T01:15:16.974Z,64.33
2023-04-28T01:17:44.088Z,64.25
2023-04-28T01:20:11.228Z,65.69
2023-04-28T01:22:37.774Z,64.90
2023-04-28T01:25:04.607Z,65.33
2023-04-28T01:27:31.199Z,65.84
2023-04-28T01:29:58.524Z,66.94
2023-04-28T01:32:25.158Z,66.92
2023-04-28T01:34:51.970Z,66.74
2023-04-28T01:37:18.549Z,70.42
2023-04-28T01:39:45.089Z,67.62
2023-04-28T01:42:11.917Z,67.37
2023-04-28T01:44:38.497Z,67.57
2023-04-28T01:47:05.228Z,67.53
2023-04-28T01:49:32.249Z,67.95
2023-04-28T01:51:58.804Z,68.58
2023-04-28T01:54:26.089Z,69.45
2023-04-28T01:56:52.692Z,69.42
2023-04-28T01:59:20.489Z,69.32
2023-04-28T02:01:47.106Z,69.05
2023-04-28T02:04:13.893Z,70.89
2023-04-28T02:06:40.653Z,71.42
2023-04-28T02:09:07.291Z,69.47
2023-04-28T02:11:33.944Z,70.08
2023-04-28T02:14:00.496Z,68.65
2023-04-28T02:16:47.044Z,68.87
2023-04-28T02:19:13.654Z,70.21
2023-04-28T02:21:41.610Z,71.00
2023-04-28T02:24:08.992Z,69.53
2023-04-28T02:26:35.605Z,69.28
2023-04-28T02:29:04.340Z,72.99
2023-04-28T02:31:31.655Z,70.45
2023-04-28T02:33:58.282Z,75.00
2023-04-28T02:36:24.995Z,75.47
2023-04-28T02:38:52.104Z,72.91
2023-04-28T02:41:18.763Z,72.40
2023-04-28T02:43:45.477Z,71.25
2023-04-28T02:46:12.064Z,74.48
2023-04-28T02:48:38.660Z,72.79
2023-04-28T02:51:05.610Z,72.00
2023-04-28T02:53:32.204Z,71.78
2023-04-28T02:55:59.523Z,72.31
2023-04-28T02:58:26.862Z,78.89
2023-04-28T03:00:53.456Z,76.46
2023-04-28T03:03:20.221Z,75.21
2023-04-28T03:05:46.911Z,72.37
2023-04-28T03:08:13.480Z,72.10
2023-04-28T03:10:40.147Z,76.21
2023-04-28T03:13:07.163Z,76.36
2023-04-28T03:15:33.761Z,80.80
2023-04-28T03:18:01.255Z,78.12
2023-04-28T03:20:27.919Z,75.32
2023-04-28T03:22:54.464Z,79.91
2023-04-28T03:25:21.024Z,75.59
2023-04-28T03:27:47.619Z,74.94
2023-04-28T03:30:14.262Z,75.04
2023-04-28T03:32:40.928Z,76.78
2023-04-28T03:35:07.666Z,78.00
2023-04-28T03:37:34.310Z,75.41
2023-04-28T03:40:00.876Z,80.18
2023-04-28T03:42:27.552Z,77.02
2023-04-28T03:44:54.066Z,76.24
2023-04-28T03:47:20.588Z,75.42
2023-04-28T03:49:47.244Z,76.07
2023-04-28T03:52:13.752Z,81.58
2023-04-28T03:54:41.473Z,79.41
2023-04-28T03:57:08.103Z,78.93
2023-04-28T03:59:34.708Z,77.50
2023-04-28T04:02:01.323Z,75.97
2023-04-28T04:04:28.313Z,76.20
2023-04-28T04:06:55.097Z,76.06
2023-04-28T04:09:21.853Z,76.56
2023-04-28T04:11:48.370Z,78.13
2023-04-28T04:14:15.174Z,76.54
2023-04-28T04:16:41.925Z,81.90
2023-04-28T04:19:08.559Z,77.03
2023-04-28T04:21:35.196Z,77.17
2023-04-28T04:24:01.777Z,75.91
2023-04-28T04:26:28.302Z,75.53
2023-04-28T04:28:54.894Z,75.93
2023-04-28T04:31:22.584Z,78.04
2023-04-28T04:33:49.644Z,76.86
2023-04-28T04:36:16.390Z,75.87
2023-04-28T04:38:42.923Z,75.69
2023-04-28T04:41:09.465Z,78.20
2023-04-28T04:43:36.109Z,81.86
2023-04-28T04:46:04.103Z,77.99
2023-04-28T04:48:30.929Z,82.91
2023-04-28T04:50:57.495Z,78.73
2023-04-28T04:53:24.252Z,77.56
2023-04-28T04:55:50.987Z,78.85
2023-04-28T04:58:17.955Z,78.67
2023-04-28T05:00:44.640Z,79.16
2023-04-28T05:03:11.867Z,81.52
2023-04-28T05:05:38.629Z,80.37
2023-04-28T05:08:05.964Z,78.57
2023-04-28T05:10:32.949Z,80.75
2023-04-28T05:12:59.604Z,80.07
2023-04-28T05:15:26.296Z,80.00
2023-04-28T05:17:52.982Z,83.13
2023-04-28T05:20:19.713Z,83.42
2023-04-28T05:22:46.307Z,82.64
2023-04-28T05:25:12.865Z,83.05
2023-04-28T05:27:40.946Z,80.71
2023-04-28T05:30:08.369Z,80.90
2023-04-28T05:32:35.740Z,81.61
2023-04-28T05:35:02.698Z,79.35
2023-04-28T05:37:29.851Z,78.89
2023-04-28T05:39:56.568Z,80.25
2023-04-28T05:42:23.154Z,79.34
2023-04-28T05:44:49.732Z,77.54
2023-04-28T05:47:16.327Z,78.81
2023-04-28T05:49:42.886Z,79.53
2023-04-28T05:52:09.444Z,80.65
2023-04-28T05:54:36.158Z,81.31
2023-04-28T05:57:02.826Z,81.01
2023-04-28T05:59:30.688Z,80.34
2023-04-28T06:01:57.357Z,80.73
2023-04-28T06:04:25.587Z,80.51
2023-04-28T06:06:52.761Z,77.51
2023-04-28T06:09:19.376Z,82.05
2023-04-28T06:11:45.960Z,80.99
2023-04-28T06:14:12.597Z,79.21
2023-04-28T06:16:41.447Z,81.24
2023-04-28T06:19:08.102Z,82.00
2023-04-28T06:21:34.739Z,79.30
2023-04-28T06:24:02.063Z,78.21
2023-04-28T06:26:29.251Z,78.73
2023-04-28T06:28:55.905Z,77.53
2023-04-28T06:31:22.827Z,81.37
2023-04-28T06:33:49.456Z,79.29
2023-04-28T06:36:17.897Z,79.75
2023-04-28T06:38:45.132Z,83.02
2023-04-28T06:41:11.992Z,79.82
2023-04-28T06:43:38.661Z,79.27
2023-04-28T06:46:05.422Z,81.79
2023-04-28T06:48:32.075Z,83.38
2023-04-28T06:50:58.607Z,83.64
2023-04-28T06:53:25.170Z,82.95
2023-04-28T06:55:51.739Z,81.93
2023-04-28T06:58:18.395Z,86.77
2023-04-28T07:00:45.100Z,82.83
2023-04-28T07:03:12.013Z,82.79
2023-04-28T07:05:38.771Z,81.70
2023-04-28T07:08:06.842Z,81.68
2023-04-28T07:10:33.369Z,82.47
2023-04-28T07:12:59.963Z,81.55
2023-04-28T07:15:26.796Z,85.25
2023-04-28T07:17:53.612Z,82.87
2023-04-28T07:20:20.428Z,82.85
2023-04-28T07:22:46.973Z,81.71
2023-04-28T07:25:13.637Z,81.67
2023-04-28T07:27:40.285Z,82.69
2023-04-28T07:30:25.216Z,82.11
2023-04-28T07:32:53.228Z,82.88
2023-04-28T07:35:19.886Z,85.20
2023-04-28T07:37:46.493Z,90.13
2023-04-28T07:40:13.221Z,88.82
2023-04-28T07:42:39.777Z,89.48
2023-04-28T07:45:06.782Z,87.85
2023-04-28T07:47:33.480Z,85.17
2023-04-28T07:50:03.557Z,84.63
2023-04-28T07:52:30.482Z,88.26
2023-04-28T07:54:57.328Z,85.83
2023-04-28T07:57:23.899Z,83.72
2023-04-28T07:59:50.715Z,86.16
2023-04-28T08:02:17.393Z,85.08
2023-04-28T08:04:44.170Z,85.92
2023-04-28T08:07:10.965Z,84.16
2023-04-28T08:09:37.615Z,85.99
2023-04-28T08:12:04.183Z,84.90
2023-04-28T08:14:30.739Z,84.63
2023-04-28T08:16:57.646Z,84.82
2023-04-28T08:19:24.340Z,84.91
2023-04-28T08:21:51.081Z,85.23
2023-04-28T08:24:17.842Z,86.85
2023-04-28T08:26:44.728Z,85.53
2023-04-28T08:29:11.609Z,86.45
2023-04-28T08:31:38.700Z,89.04
2023-04-28T08:34:05.305Z,87.37
2023-04-28T08:36:33.315Z,87.27
2023-04-28T08:39:03.150Z,91.47
2023-04-28T08:41:32.332Z,89.05
2023-04-28T08:43:58.882Z,90.10
2023-04-28T08:46:27.453Z,89.17
2023-04-28T08:48:58.419Z,88.69
2023-04-28T08:51:33.433Z,89.02
2023-04-28T08:56:35.949Z,95.24
2023-04-28T08:59:04.224Z,96.27
2023-04-28T09:01:31.472Z,97.42
2023-04-28T09:04:00.990Z,93.65
2023-04-28T09:06:28.271Z,96.44
2023-04-28T09:08:57.184Z,96.46
2023-04-28T09:11:23.764Z,99.85
2023-04-28T09:13:50.359Z,98.16
2023-04-28T09:16:17.254Z,96.08
2023-04-28T09:18:56.025Z,95.07
2023-04-28T09:21:22.608Z,93.68
2023-04-28T09:23:50.675Z,94.86
2023-04-28T09:26:17.563Z,99.04
2023-04-28T09:28:44.366Z,98.97
2023-04-28T09:31:25.238Z,96.17
2023-04-28T09:33:58.366Z,99.63
2023-04-28T09:36:29.709Z,96.94
2023-04-28T09:39:00.227Z,93.91
2023-04-28T09:41:42.917Z,96.96
2023-04-28T09:44:17.656Z,94.67
2023-04-28T09:46:45.298Z,98.62
2023-04-28T09:49:15.498Z,96.94
2023-04-28T09:51:42.648Z,96.67
2023-04-28T09:54:09.459Z,95.27
2023-04-28T09:56:41.979Z,96.50
2023-04-28T09:59:08.849Z,99.08
2023-04-28T10:01:40.631Z,98.04
2023-04-28T10:04:08.148Z,94.22
2023-04-28T10:06:38.139Z,93.32
2023-04-28T10:09:05.628Z,95.80
2023-04-28T10:11:33.933Z,95.81
2023-04-28T10:14:00.606Z,96.26
2023-04-28T10:16:30.358Z,94.32
2023-04-28T10:18:57.706Z,92.56
2023-04-28T10:21:25.324Z,91.89
2023-04-28T10:24:16.173Z,91.56
2023-04-28T10:27:01.541Z,91.17
2023-04-28T10:29:28.825Z,90.87
2023-04-28T10:32:14.213Z,90.59
2023-04-28T10:34:40.794Z,90.08
2023-04-28T10:37:07.416Z,90.26
2023-04-28T10:39:34.148Z,90.06
2023-04-28T10:42:00.758Z,89.94
2023-04-28T10:44:30.157Z,90.21
2023-04-28T10:47:02.207Z,90.61
2023-04-28T10:49:47.227Z,90.96
2023-04-28T10:52:32.643Z,91.80
2023-04-28T10:55:22.114Z,89.07
2023-04-28T10:58:09.031Z,89.51
2023-04-28T11:00:35.690Z,89.88
2023-04-28T11:03:02.420Z,92.33
2023-04-28T11:05:31.968Z,91.97
2023-04-28T11:08:16.948Z,93.08
2023-04-28T11:11:02.363Z,98.23
2023-04-28T11:13:34.300Z,97.70
2023-04-28T11:16:04.462Z,100.00
2023-04-28T11:18:54.932Z,97.96
2023-04-28T11:21:23.431Z,99.46
2023-04-28T11:23:50.419Z,100.00
2023-04-28T11:26:17.270Z,100.00
2023-04-28T11:28:51.066Z,100.00
2023-04-28T11:31:20.683Z,99.33
2023-04-28T11:33:49.567Z,100.00
2023-04-28T11:36:23.215Z,98.06
2023-04-28T11:38:49.751Z,98.33
2023-04-28T11:41:16.529Z,96.24
2023-04-28T11:43:47.283Z,94.56
2023-04-28T11:46:18.283Z,94.93
2023-04-28T11:48:45.449Z,94.93
2023-04-28T11:51:28.239Z,95.00
2023-04-28T11:53:55.052Z,95.99
2023-04-28T11:56:21.666Z,96.14
2023-04-28T11:59:00.666Z,95.03
2023-04-28T12:01:28.301Z,93.23
2023-04-28T12:03:55.977Z,93.00
2023-04-28T12:06:22.693Z,92.98
2023-04-28T12:08:49.360Z,92.97
2023-04-28T12:11:20.116Z,92.52
2023-04-28T12:14:06.225Z,93.67
2023-04-28T12:16:44.269Z,92.58
2023-04-28T12:19:11.506Z,92.72
2023-04-28T12:21:39.586Z,91.77
2023-04-28T12:24:19.926Z,91.16
2023-04-28T12:26:47.433Z,92.71
2023-04-28T12:29:32.655Z,93.05
2023-04-28T12:31:59.455Z,94.53
2023-04-28T12:34:27.351Z,94.81
2023-04-28T12:36:54.027Z,96.00
2023-04-28T12:39:23.038Z,97.69
2023-04-28T12:41:49.640Z,98.18
2023-04-28T12:44:16.205Z,98.43
2023-04-28T12:46:42.879Z,99.36
2023-04-28T12:49:09.673Z,100.00
2023-04-28T12:51:38.925Z,100.00
2023-04-28T12:54:05.618Z,100.00
2023-04-28T12:56:32.185Z,100.00
2023-04-28T12:58:58.768Z,100.00
2023-04-28T13:01:25.364Z,100.00
2023-04-28T13:03:53.724Z,100.00
2023-04-28T13:06:20.602Z,100.00
2023-04-28T13:08:47.183Z,100.00
2023-04-28T13:11:22.697Z,100.00
2023-04-28T13:13:49.789Z,100.00
2023-04-28T13:16:16.400Z,100.00
2023-04-28T13:18:43.327Z,98.70
2023-04-28T13:21:09.904Z,100.00
2023-04-28T13:23:36.630Z,100.00
2023-04-28T13:26:04.394Z,99.89
2023-04-28T13:28:31.026Z,98.49
2023-04-28T13:30:57.629Z,98.54
2023-04-28T13:33:30.957Z,98.50
2023-04-28T13:35:58.499Z,100.00
2023-04-28T13:38:25.890Z,100.00
2023-04-28T13:40:53.084Z,100.00
2023-04-28T13:43:19.693Z,100.00
2023-04-28T13:45:46.536Z,100.00
2023-04-28T13:48:13.373Z,100.00
2023-04-28T13:50:39.979Z,100.00
2023-04-28T13:53:06.601Z,100.00
2023-04-28T13:55:33.229Z,100.00
2023-04-28T13:58:04.558Z,100.00
2023-04-28T14:00:32.659Z,100.00
2023-04-28T14:03:00.316Z,100.00
2023-04-28T14:05:29.741Z,100.00
2023-04-28T14:07:56.925Z,100.00
2023-04-28T14:10:23.449Z,100.00
2023-04-28T14:12:50.508Z,100.00
2023-04-28T14:15:18.074Z,100.00
2023-04-28T14:17:44.765Z,100.00
2023-04-28T14:20:11.736Z,100.00
2023-04-28T14:22:38.906Z,100.00
2023-04-28T14:25:05.656Z,100.00
2023-04-28T14:27:33.485Z,100.00
2023-04-28T14:30:00.856Z,100.00
2023-04-28T14:32:27.889Z,100.00
2023-04-28T14:34:54.511Z,100.00
2023-04-28T14:37:21.293Z,100.00
2023-04-28T14:39:48.620Z,100.00
2023-04-28T14:42:15.293Z,100.00
2023-04-28T14:44:41.862Z,100.00
2023-04-28T14:47:08.446Z,100.00
2023-04-28T14:49:35.139Z,100.00
2023-04-28T14:52:01.830Z,100.00
2023-04-28T14:54:28.685Z,100.00
2023-04-28T14:56:55.213Z,100.00
2023-04-28T14:59:21.846Z,100.00
2023-04-28T15:01:50.588Z,100.00
2023-04-28T15:04:17.433Z,100.00
2023-04-28T15:06:44.090Z,100.00
2023-04-28T15:09:10.821Z,100.00
2023-04-28T15:11:37.364Z,100.00
2023-04-28T15:14:03.979Z,100.00
2023-04-28T15:16:30.594Z,100.00
2023-04-28T15:18:57.180Z,100.00
2023-04-28T15:21:23.941Z,100.00
2023-04-28T15:23:50.490Z,100.00
2023-04-28T15:26:17.367Z,100.00
2023-04-28T15:28:43.987Z,100.00
2023-04-28T15:31:10.587Z,100.00
2023-04-28T15:33:37.439Z,100.00
2023-04-28T15:36:05.158Z,100.00
2023-04-28T15:38:31.758Z,100.00
2023-04-28T15:40:58.379Z,100.00
2023-04-28T15:43:25.374Z,100.00
2023-04-28T15:45:52.527Z,100.00
2023-04-28T15:48:19.166Z,100.00
2023-04-28T15:50:46.675Z,100.00
2023-04-28T15:53:13.342Z,100.00
2023-04-28T15:55:40.042Z,100.00
2023-04-28T15:58:08.128Z,100.00
2023-04-28T16:00:35.120Z,100.00
2023-04-28T16:03:01.762Z,100.00
2023-04-28T16:05:28.492Z,100.00
2023-04-28T16:07:55.139Z,100.00
2023-04-28T16:10:22.138Z,100.00
2023-04-28T16:12:48.768Z,100.00
2023-04-28T16:15:15.391Z,100.00
2023-04-28T16:17:42.303Z,100.00
2023-04-28T16:20:09.907Z,100.00
2023-04-28T16:22:36.792Z,100.00
2023-04-28T16:25:06.721Z,100.00
2023-04-28T16:27:36.633Z,100.00
2023-04-28T16:30:04.975Z,100.00
2023-04-28T16:32:33.674Z,100.00
2023-04-28T16:35:00.611Z,100.00
2023-04-28T16:37:27.224Z,100.00
2023-04-28T16:39:53.807Z,100.00
2023-04-28T16:42:23.338Z,100.00
2023-04-28T16:44:52.472Z,100.00
2023-04-28T16:47:19.631Z,100.00
2023-04-28T16:49:46.280Z,100.00
2023-04-28T16:52:13.026Z,100.00
2023-04-28T16:54:39.750Z,100.00
2023-04-28T16:57:06.434Z,100.00
2023-04-28T16:59:34.016Z,100.00
2023-04-28T17:02:05.838Z,100.00
2023-04-28T17:04:32.934Z,100.00
2023-04-28T17:06:59.811Z,100.00
2023-04-28T17:09:27.543Z,100.00
2023-04-28T17:11:55.036Z,100.00
2023-04-28T17:14:21.719Z,100.00
2023-04-28T17:16:48.287Z,100.00
2023-04-28T17:19:14.954Z,100.00
2023-04-28T17:21:41.523Z,100.00
2023-04-28T17:24:08.943Z,100.00
2023-04-28T17:26:36.426Z,100.00
2023-04-28T17:29:03.667Z,100.00
2023-04-28T17:31:30.411Z,100.00
2023-04-28T17:33:57.760Z,100.00
2023-04-28T17:36:26.031Z,100.00
2023-04-28T17:38:53.296Z,100.00
2023-04-28T17:41:19.953Z,100.00
2023-04-28T17:43:46.683Z,99.99
2023-04-28T17:46:14.672Z,100.00
2023-04-28T17:48:42.512Z,100.00
2023-04-28T17:51:09.383Z,100.00
2023-04-28T17:53:37.442Z,100.00
2023-04-28T17:56:04.368Z,100.00
2023-04-28T17:58:32.720Z,100.00
2023-04-28T18:01:00.101Z,100.00
2023-04-28T18:03:27.181Z,100.00
2023-04-28T18:05:53.823Z,100.00
2023-04-28T18:08:20.489Z,100.00
2023-04-28T18:10:47.105Z,100.00
2023-04-28T18:13:13.676Z,100.00
2023-04-28T18:15:40.393Z,100.00
2023-04-28T18:18:06.940Z,100.00
2023-04-28T18:20:33.517Z,100.00
2023-04-28T18:23:00.181Z,100.00
2023-04-28T18:25:26.882Z,100.00
2023-04-28T18:27:54.028Z,100.00
2023-04-28T18:30:20.710Z,100.00
2023-04-28T18:32:48.865Z,100.00
2023-04-28T18:35:16.060Z,100.00
2023-04-28T18:37:46.055Z,100.00
2023-04-28T18:40:13.402Z,100.00
2023-04-28T18:42:39.995Z,100.00
2023-04-28T18:45:08.063Z,100.00
2023-04-28T18:47:35.192Z,100.00
2023-04-28T18:50:02.642Z,100.00
2023-04-28T18:52:30.198Z,100.00
2023-04-28T18:54:56.870Z,100.00
2023-04-28T18:57:23.482Z,100.00
2023-04-28T18:59:50.207Z,100.00
2023-04-28T19:02:17.859Z,100.00
2023-04-28T19:04:45.362Z,100.00
2023-04-28T19:07:11.981Z,100.00
2023-04-28T19:09:38.541Z,100.00
2023-04-28T19:12:05.244Z,100.00
2023-04-28T19:14:31.997Z,100.00
2023-04-28T19:16:58.661Z,100.00
2023-04-28T19:19:25.275Z,100.00
2023-04-28T19:21:52.611Z,100.00
2023-04-28T19:24:19.196Z,100.00
2023-04-28T19:26:45.839Z,100.00
2023-04-28T19:29:14.984Z,100.00
2023-04-28T19:31:41.525Z,100.00
2023-04-28T19:34:08.134Z,100.00
2023-04-28T19:36:35.629Z,100.00
2023-04-28T19:39:02.164Z,100.00
2023-04-28T19:41:29.160Z,100.00
2023-04-28T19:43:55.743Z,100.00
2023-04-28T19:46:22.744Z,100.00
2023-04-28T19:48:49.325Z,100.00
2023-04-28T19:51:16.979Z,100.00
2023-04-28T19:53:46.410Z,100.00
2023-04-28T19:56:13.901Z,100.00
2023-04-28T19:58:41.072Z,100.00
2023-04-28T20:01:07.827Z,100.00
2023-04-28T20:03:35.022Z,100.00
2023-04-28T20:06:01.665Z,100.00
2023-04-28T20:08:28.436Z,100.00
2023-04-28T20:10:55.101Z,100.00
2023-04-28T20:13:21.642Z,100.00
2023-04-28T20:15:48.343Z,100.00
2023-04-28T20:18:14.947Z,100.00
2023-04-28T20:20:41.544Z,100.00
2023-04-28T20:23:08.190Z,100.00
2023-04-28T20:25:37.912Z,100.00
2023-04-28T20:28:05.354Z,100.00
2023-04-28T20:30:32.091Z,100.00
2023-04-28T20:32:58.724Z,100.00
2023-04-28T20:35:25.363Z,100.00
2023-04-28T20:37:53.053Z,100.00
2023-04-28T20:40:19.670Z,100.00
2023-04-28T20:42:47.098Z,100.00
2023-04-28T20:45:13.698Z,100.00
2023-04-28T20:47:40.629Z,100.00
2023-04-28T20:50:10.850Z,100.00
2023-04-28T20:52:38.006Z,100.00
2023-04-28T20:55:04.970Z,100.00
2023-04-28T20:57:31.528Z,100.00
2023-04-28T20:59:58.080Z,100.00
2023-04-28T21:02:24.821Z,100.00
2023-04-28T21:04:52.218Z,100.00
2023-04-28T21:07:18.787Z,100.00
2023-04-28T21:09:45.447Z,100.00
2023-04-28T21:12:12.000Z,100.00
2023-04-28T21:14:38.888Z,100.00
2023-04-28T21:17:05.759Z,100.00
2023-04-28T21:19:32.537Z,100.00
2023-04-28T21:21:59.188Z,100.00
2023-04-28T21:24:26.166Z,100.00
2023-04-28T21:26:52.756Z,100.00
2023-04-28T21:29:19.385Z,100.00
2023-04-28T21:31:46.043Z,100.00
2023-04-28T21:34:12.687Z,100.00
2023-04-28T21:36:40.014Z,100.00
2023-04-28T21:39:07.727Z,100.00
2023-04-28T21:41:34.306Z,100.00
2023-04-28T21:44:00.909Z,100.00
2023-04-28T21:46:27.924Z,100.00
2023-04-28T21:48:55.242Z,100.00
2023-04-28T21:51:21.846Z,100.00
2023-04-28T21:53:48.782Z,100.00
2023-04-28T21:56:17.218Z,100.00
2023-04-28T21:58:43.803Z,100.00
2023-04-28T22:01:12.080Z,100.00
2023-04-28T22:03:38.967Z,100.00
2023-04-28T22:06:05.805Z,100.00
2023-04-28T22:08:33.784Z,100.00
2023-04-28T22:11:00.905Z,100.00
2023-04-28T22:13:27.712Z,100.00
2023-04-28T22:15:56.182Z,100.00
2023-04-28T22:18:22.812Z,100.00
2023-04-28T22:20:50.124Z,100.00
2023-04-28T22:23:16.735Z,100.00
2023-04-28T22:25:43.540Z,100.00
2023-04-28T22:28:10.083Z,100.00
2023-04-28T22:30:36.809Z,100.00
2023-04-28T22:33:03.924Z,100.00
2023-04-28T22:35:30.607Z,100.00
2023-04-28T22:37:57.318Z,100.00
2023-04-28T22:40:23.857Z,100.00
2023-04-28T22:42:50.394Z,100.00
2023-04-28T22:45:16.999Z,100.00
2023-04-28T22:47:43.591Z,100.00
2023-04-28T22:50:10.955Z,100.00
2023-04-28T22:52:37.624Z,100.00
2023-04-28T22:55:04.781Z,100.00
2023-04-28T22:57:31.347Z,100.00
2023-04-28T22:59:57.967Z,100.00
2023-04-28T23:02:25.447Z,100.00
2023-04-28T23:04:52.179Z,100.00
2023-04-28T23:07:18.895Z,100.00
2023-04-28T23:09:45.490Z,100.00
2023-04-28T23:12:12.246Z,100.00
2023-04-28T23:14:38.889Z,100.00
2023-04-28T23:17:05.639Z,100.00
2023-04-28T23:19:32.293Z,100.00
2023-04-28T23:21:59.025Z,100.00
2023-04-28T23:24:27.191Z,100.00
2023-04-28T23:26:53.840Z,100.00
2023-04-28T23:29:20.423Z,100.00
2023-04-28T23:31:52.289Z,100.00
2023-04-28T23:34:19.276Z,100.00
2023-04-28T23:36:45.873Z,100.00
2023-04-28T23:39:12.452Z,100.00
2023-04-28T23:41:39.157Z,100.00
2023-04-28T23:44:05.729Z,100.00
2023-04-28T23:46:32.266Z,100.00
2023-04-28T23:48:58.910Z,100.00
2023-04-28T23:51:25.879Z,100.00
2023-04-28T23:53:52.408Z,100.00
2023-04-28T23:56:18.944Z,100.00
2023-04-28T23:58:45.478Z,100.00
